sensor_id;sensor_type;location;lat;lon;timestamp;temperature;humidity
68977;SHT31;56029;52.568;13.588;2023-04-24T00:00:54;9.38;99.99
68977;SHT31;56029;52.568;13.588;2023-04-24T00:03:25;9.35;99.99
68977;SHT31;56029;52.568;13.588;2023-04-24T00:05:54;9.31;99.99
68977;SHT31;56029;52.568;13.588;2023-04-24T00:08:19;9.31;99.99
68977;SHT31;56029;52.568;13.588;2023-04-24T00:10:45;9.28;99.99
68977;SHT31;56029;52.568;13.588;2023-04-24T00:13:10;9.25;99.99
68977;SHT31;56029;52.568;13.588;2023-04-24T00:15:36;9.25;99.99
68977;SHT31;56029;52.568;13.588;2023-04-24T00:18:02;9.24;99.99
68977;SHT31;56029;52.568;13.588;2023-04-24T00:20:28;9.25;99.99
68977;SHT31;56029;52.568;13.588;2023-04-24T00:22:54;9.27;99.99
68977;SHT31;56029;52.568;13.588;2023-04-24T00:25:20;9.27;99.99
68977;SHT31;56029;52.568;13.588;2023-04-24T00:27:46;9.34;99.99
68977;SHT31;56029;52.568;13.588;2023-04-24T00:30:12;9.36;99.99
68977;SHT31;56029;52.568;13.588;2023-04-24T00:32:37;9.35;99.99
68977;SHT31;56029;52.568;13.588;2023-04-24T00:35:04;9.32;99.99
68977;SHT31;56029;52.568;13.588;2023-04-24T00:37:31;9.36;99.99
68977;SHT31;56029;52.568;13.588;2023-04-24T00:39:56;9.38;99.99
68977;SHT31;56029;52.568;13.588;2023-04-24T00:42:22;9.36;99.99
68977;SHT31;56029;52.568;13.588;2023-04-24T00:44:48;9.32;99.99
68977;SHT31;56029;52.568;13.588;2023-04-24T00:47:13;9.22;99.99
68977;SHT31;56029;52.568;13.588;2023-04-24T00:49:39;9.21;99.99
68977;SHT31;56029;52.568;13.588;2023-04-24T00:52:05;9.14;99.99
68977;SHT31;56029;52.568;13.588;2023-04-24T00:54:35;9.14;99.99
68977;SHT31;56029;52.568;13.588;2023-04-24T00:57:02;9.10;99.99
68977;SHT31;56029;52.568;13.588;2023-04-24T00:59:28;9.07;99.99
68977;SHT31;56029;52.568;13.588;2023-04-24T01:01:53;9.00;99.99
68977;SHT31;56029;52.568;13.588;2023-04-24T01:04:19;8.96;99.99
68977;SHT31;56029;52.568;13.588;2023-04-24T01:06:45;8.91;99.99
68977;SHT31;56029;52.568;13.588;2023-04-24T01:09:12;8.88;99.99
68977;SHT31;56029;52.568;13.588;2023-04-24T01:11:37;8.83;99.99
68977;SHT31;56029;52.568;13.588;2023-04-24T01:14:03;8.83;99.99
68977;SHT31;56029;52.568;13.588;2023-04-24T01:16:29;8.79;99.99
68977;SHT31;56029;52.568;13.588;2023-04-24T01:18:55;8.79;99.99
68977;SHT31;56029;52.568;13.588;2023-04-24T01:21:21;8.79;99.99
68977;SHT31;56029;52.568;13.588;2023-04-24T01:23:47;8.74;99.99
68977;SHT31;56029;52.568;13.588;2023-04-24T01:26:16;8.71;99.99
68977;SHT31;56029;52.568;13.588;2023-04-24T01:28:42;8.71;99.99
68977;SHT31;56029;52.568;13.588;2023-04-24T01:31:08;8.71;99.99
68977;SHT31;56029;52.568;13.588;2023-04-24T01:33:33;8.76;99.99
68977;SHT31;56029;52.568;13.588;2023-04-24T01:35:59;8.81;99.99
68977;SHT31;56029;52.568;13.588;2023-04-24T01:38:25;8.84;99.99
68977;SHT31;56029;52.568;13.588;2023-04-24T01:40:51;8.91;99.99
68977;SHT31;56029;52.568;13.588;2023-04-24T01:43:17;8.91;99.99
68977;SHT31;56029;52.568;13.588;2023-04-24T01:45:43;8.97;99.99
68977;SHT31;56029;52.568;13.588;2023-04-24T01:48:08;9.00;99.99
68977;SHT31;56029;52.568;13.588;2023-04-24T01:50:34;9.07;99.99
68977;SHT31;56029;52.568;13.588;2023-04-24T01:53:00;9.10;99.99
68977;SHT31;56029;52.568;13.588;2023-04-24T01:55:25;9.10;99.99
68977;SHT31;56029;52.568;13.588;2023-04-24T01:57:52;9.18;99.99
68977;SHT31;56029;52.568;13.588;2023-04-24T02:00:17;9.18;99.99
68977;SHT31;56029;52.568;13.588;2023-04-24T02:02:44;9.21;99.99
68977;SHT31;56029;52.568;13.588;2023-04-24T02:05:09;9.19;99.99
68977;SHT31;56029;52.568;13.588;2023-04-24T02:07:36;9.29;99.99
68977;SHT31;56029;52.568;13.588;2023-04-24T02:10:02;9.31;99.99
68977;SHT31;56029;52.568;13.588;2023-04-24T02:12:29;9.32;99.99
68977;SHT31;56029;52.568;13.588;2023-04-24T02:14:55;9.29;99.99
68977;SHT31;56029;52.568;13.588;2023-04-24T02:17:20;9.27;99.99
68977;SHT31;56029;52.568;13.588;2023-04-24T02:19:46;9.25;99.99
68977;SHT31;56029;52.568;13.588;2023-04-24T02:22:12;9.24;99.99
68977;SHT31;56029;52.568;13.588;2023-04-24T02:24:38;9.22;99.99
68977;SHT31;56029;52.568;13.588;2023-04-24T02:27:04;9.22;99.99
68977;SHT31;56029;52.568;13.588;2023-04-24T02:29:29;9.27;99.99
68977;SHT31;56029;52.568;13.588;2023-04-24T02:31:55;9.28;99.99
68977;SHT31;56029;52.568;13.588;2023-04-24T02:34:21;9.25;99.99
68977;SHT31;56029;52.568;13.588;2023-04-24T02:36:47;9.27;99.99
68977;SHT31;56029;52.568;13.588;2023-04-24T02:39:12;9.25;99.99
68977;SHT31;56029;52.568;13.588;2023-04-24T02:41:38;9.31;99.99
68977;SHT31;56029;52.568;13.588;2023-04-24T02:44:04;9.28;99.99
68977;SHT31;56029;52.568;13.588;2023-04-24T02:46:29;9.31;99.99
68977;SHT31;56029;52.568;13.588;2023-04-24T02:48:55;9.29;99.99
68977;SHT31;56029;52.568;13.588;2023-04-24T02:51:21;9.27;99.99
68977;SHT31;56029;52.568;13.588;2023-04-24T02:53:46;9.27;99.99
68977;SHT31;56029;52.568;13.588;2023-04-24T02:56:12;9.28;99.99
68977;SHT31;56029;52.568;13.588;2023-04-24T02:58:38;9.27;99.99
68977;SHT31;56029;52.568;13.588;2023-04-24T03:01:04;9.25;99.99
68977;SHT31;56029;52.568;13.588;2023-04-24T03:03:30;9.28;99.99
68977;SHT31;56029;52.568;13.588;2023-04-24T03:05:56;9.25;99.99
68977;SHT31;56029;52.568;13.588;2023-04-24T03:08:22;9.27;99.99
68977;SHT31;56029;52.568;13.588;2023-04-24T03:10:48;9.27;99.99
68977;SHT31;56029;52.568;13.588;2023-04-24T03:13:13;9.29;99.99
68977;SHT31;56029;52.568;13.588;2023-04-24T03:15:39;9.31;99.99
68977;SHT31;56029;52.568;13.588;2023-04-24T03:18:04;9.34;99.99
68977;SHT31;56029;52.568;13.588;2023-04-24T03:20:30;9.40;99.99
68977;SHT31;56029;52.568;13.588;2023-04-24T03:22:55;9.39;99.99
68977;SHT31;56029;52.568;13.588;2023-04-24T03:25:22;9.45;99.99
68977;SHT31;56029;52.568;13.588;2023-04-24T03:27:47;9.43;99.99
68977;SHT31;56029;52.568;13.588;2023-04-24T03:30:13;9.46;99.99
68977;SHT31;56029;52.568;13.588;2023-04-24T03:32:39;9.52;99.99
68977;SHT31;56029;52.568;13.588;2023-04-24T03:35:06;9.60;99.99
68977;SHT31;56029;52.568;13.588;2023-04-24T03:37:33;9.65;99.99
68977;SHT31;56029;52.568;13.588;2023-04-24T03:39:58;9.70;99.99
68977;SHT31;56029;52.568;13.588;2023-04-24T03:42:24;9.79;99.99
68977;SHT31;56029;52.568;13.588;2023-04-24T03:44:49;9.83;99.99
68977;SHT31;56029;52.568;13.588;2023-04-24T03:47:15;9.86;99.99
68977;SHT31;56029;52.568;13.588;2023-04-24T03:49:41;9.94;99.99
68977;SHT31;56029;52.568;13.588;2023-04-24T03:52:06;9.98;99.99
68977;SHT31;56029;52.568;13.588;2023-04-24T03:54:32;10.04;99.99
68977;SHT31;56029;52.568;13.588;2023-04-24T03:56:57;10.07;99.99
68977;SHT31;56029;52.568;13.588;2023-04-24T03:59:23;10.11;99.99
68977;SHT31;56029;52.568;13.588;2023-04-24T04:01:48;10.16;99.99
68977;SHT31;56029;52.568;13.588;2023-04-24T04:04:14;10.20;99.99
68977;SHT31;56029;52.568;13.588;2023-04-24T04:06:39;10.22;99.99
68977;SHT31;56029;52.568;13.588;2023-04-24T04:09:05;10.25;99.99
68977;SHT31;56029;52.568;13.588;2023-04-24T04:11:32;10.30;99.99
68977;SHT31;56029;52.568;13.588;2023-04-24T04:13:58;10.33;99.99
68977;SHT31;56029;52.568;13.588;2023-04-24T04:16:23;10.41;99.99
68977;SHT31;56029;52.568;13.588;2023-04-24T04:18:49;10.38;99.99
68977;SHT31;56029;52.568;13.588;2023-04-24T04:21:15;10.42;99.99
68977;SHT31;56029;52.568;13.588;2023-04-24T04:23:41;10.42;99.99
68977;SHT31;56029;52.568;13.588;2023-04-24T04:26:06;10.42;99.99
68977;SHT31;56029;52.568;13.588;2023-04-24T04:28:33;10.44;99.99
68977;SHT31;56029;52.568;13.588;2023-04-24T04:30:59;10.45;99.99
68977;SHT31;56029;52.568;13.588;2023-04-24T04:33:24;10.45;99.99
68977;SHT31;56029;52.568;13.588;2023-04-24T04:35:51;10.49;99.99
68977;SHT31;56029;52.568;13.588;2023-04-24T04:38:18;10.49;99.99
68977;SHT31;56029;52.568;13.588;2023-04-24T04:40:45;10.52;99.99
68977;SHT31;56029;52.568;13.588;2023-04-24T04:43:11;10.55;99.99
68977;SHT31;56029;52.568;13.588;2023-04-24T04:45:38;10.55;99.99
68977;SHT31;56029;52.568;13.588;2023-04-24T04:48:05;10.59;99.99
68977;SHT31;56029;52.568;13.588;2023-04-24T04:50:33;10.62;99.99
68977;SHT31;56029;52.568;13.588;2023-04-24T04:52:58;10.66;99.99
68977;SHT31;56029;52.568;13.588;2023-04-24T04:55:24;10.69;99.99
68977;SHT31;56029;52.568;13.588;2023-04-24T04:57:50;10.72;99.99
68977;SHT31;56029;52.568;13.588;2023-04-24T05:00:16;10.77;99.99
68977;SHT31;56029;52.568;13.588;2023-04-24T05:02:41;10.82;99.99
68977;SHT31;56029;52.568;13.588;2023-04-24T05:05:07;10.89;99.99
68977;SHT31;56029;52.568;13.588;2023-04-24T05:07:34;10.96;99.99
68977;SHT31;56029;52.568;13.588;2023-04-24T05:10:00;11.02;99.99
68977;SHT31;56029;52.568;13.588;2023-04-24T05:12:25;11.09;99.99
68977;SHT31;56029;52.568;13.588;2023-04-24T05:14:51;11.16;99.81
68977;SHT31;56029;52.568;13.588;2023-04-24T05:17:17;11.17;99.69
68977;SHT31;56029;52.568;13.588;2023-04-24T05:19:42;11.23;99.76
68977;SHT31;56029;52.568;13.588;2023-04-24T05:22:08;11.24;99.48
68977;SHT31;56029;52.568;13.588;2023-04-24T05:24:35;11.30;99.19
68977;SHT31;56029;52.568;13.588;2023-04-24T05:27:01;11.33;98.94
68977;SHT31;56029;52.568;13.588;2023-04-24T05:29:28;11.34;98.57
68977;SHT31;56029;52.568;13.588;2023-04-24T05:31:56;11.43;98.19
68977;SHT31;56029;52.568;13.588;2023-04-24T05:34:21;11.51;97.63
68977;SHT31;56029;52.568;13.588;2023-04-24T05:36:47;11.61;97.37
68977;SHT31;56029;52.568;13.588;2023-04-24T05:39:13;11.67;97.27
68977;SHT31;56029;52.568;13.588;2023-04-24T05:41:39;11.68;96.69
68977;SHT31;56029;52.568;13.588;2023-04-24T05:44:04;11.81;96.34
68977;SHT31;56029;52.568;13.588;2023-04-24T05:46:30;11.86;96.27
68977;SHT31;56029;52.568;13.588;2023-04-24T05:48:56;11.92;95.96
68977;SHT31;56029;52.568;13.588;2023-04-24T05:51:21;11.96;95.30
68977;SHT31;56029;52.568;13.588;2023-04-24T05:53:47;12.03;94.22
68977;SHT31;56029;52.568;13.588;2023-04-24T05:56:13;12.09;94.11
68977;SHT31;56029;52.568;13.588;2023-04-24T05:58:38;12.19;93.64
68977;SHT31;56029;52.568;13.588;2023-04-24T06:01:05;12.29;93.50
68977;SHT31;56029;52.568;13.588;2023-04-24T06:03:31;12.39;92.77
68977;SHT31;56029;52.568;13.588;2023-04-24T06:05:57;12.43;92.62
68977;SHT31;56029;52.568;13.588;2023-04-24T06:08:22;12.44;92.08
68977;SHT31;56029;52.568;13.588;2023-04-24T06:10:48;12.46;91.99
68977;SHT31;56029;52.568;13.588;2023-04-24T06:13:13;12.50;91.33
68977;SHT31;56029;52.568;13.588;2023-04-24T06:15:39;12.47;91.68
68977;SHT31;56029;52.568;13.588;2023-04-24T06:18:05;12.54;91.41
68977;SHT31;56029;52.568;13.588;2023-04-24T06:20:31;12.60;91.39
68977;SHT31;56029;52.568;13.588;2023-04-24T06:22:56;12.67;90.96
68977;SHT31;56029;52.568;13.588;2023-04-24T06:25:25;12.77;90.30
68977;SHT31;56029;52.568;13.588;2023-04-24T06:27:51;12.87;90.33
68977;SHT31;56029;52.568;13.588;2023-04-24T06:30:17;12.92;89.98
68977;SHT31;56029;52.568;13.588;2023-04-24T06:32:42;13.01;89.92
68977;SHT31;56029;52.568;13.588;2023-04-24T06:35:08;13.15;89.06
68977;SHT31;56029;52.568;13.588;2023-04-24T06:37:35;13.18;87.73
68977;SHT31;56029;52.568;13.588;2023-04-24T06:40:01;13.18;87.00
68977;SHT31;56029;52.568;13.588;2023-04-24T06:42:26;13.18;88.13
68977;SHT31;56029;52.568;13.588;2023-04-24T06:44:52;13.20;87.58
68977;SHT31;56029;52.568;13.588;2023-04-24T06:47:17;13.20;87.07
68977;SHT31;56029;52.568;13.588;2023-04-24T06:49:44;13.34;86.14
68977;SHT31;56029;52.568;13.588;2023-04-24T06:52:09;13.43;85.84
68977;SHT31;56029;52.568;13.588;2023-04-24T06:54:35;13.66;85.10
68977;SHT31;56029;52.568;13.588;2023-04-24T06:57:00;13.76;83.96
68977;SHT31;56029;52.568;13.588;2023-04-24T06:59:27;13.83;84.81
68977;SHT31;56029;52.568;13.588;2023-04-24T07:01:53;13.88;84.28
68977;SHT31;56029;52.568;13.588;2023-04-24T07:04:19;13.97;82.65
68977;SHT31;56029;52.568;13.588;2023-04-24T07:06:45;14.15;83.45
68977;SHT31;56029;52.568;13.588;2023-04-24T07:09:11;14.22;82.44
68977;SHT31;56029;52.568;13.588;2023-04-24T07:11:39;14.21;80.73
68977;SHT31;56029;52.568;13.588;2023-04-24T07:14:06;14.24;81.45
68977;SHT31;56029;52.568;13.588;2023-04-24T07:16:32;14.29;80.68
68977;SHT31;56029;52.568;13.588;2023-04-24T07:18:57;14.38;81.33
68977;SHT31;56029;52.568;13.588;2023-04-24T07:21:23;14.41;81.07
68977;SHT31;56029;52.568;13.588;2023-04-24T07:23:48;14.44;79.90
68977;SHT31;56029;52.568;13.588;2023-04-24T07:26:14;14.41;79.19
68977;SHT31;56029;52.568;13.588;2023-04-24T07:28:40;14.44;79.44
68977;SHT31;56029;52.568;13.588;2023-04-24T07:31:08;14.42;79.19
68977;SHT31;56029;52.568;13.588;2023-04-24T07:33:34;14.51;79.02
68977;SHT31;56029;52.568;13.588;2023-04-24T07:36:01;14.59;78.01
68977;SHT31;56029;52.568;13.588;2023-04-24T07:38:29;14.77;78.62
68977;SHT31;56029;52.568;13.588;2023-04-24T07:40:55;14.89;77.12
68977;SHT31;56029;52.568;13.588;2023-04-24T07:43:21;14.97;75.80
68977;SHT31;56029;52.568;13.588;2023-04-24T07:45:47;15.00;75.50
68977;SHT31;56029;52.568;13.588;2023-04-24T07:48:12;15.21;76.73
68977;SHT31;56029;52.568;13.588;2023-04-24T07:50:41;15.35;74.48
68977;SHT31;56029;52.568;13.588;2023-04-24T07:53:07;15.48;74.41
68977;SHT31;56029;52.568;13.588;2023-04-24T07:55:33;15.59;74.39
68977;SHT31;56029;52.568;13.588;2023-04-24T07:57:58;15.66;74.52
68977;SHT31;56029;52.568;13.588;2023-04-24T08:00:24;15.61;72.95
68977;SHT31;56029;52.568;13.588;2023-04-24T08:02:49;15.59;72.39
68977;SHT31;56029;52.568;13.588;2023-04-24T08:05:15;15.55;72.38
68977;SHT31;56029;52.568;13.588;2023-04-24T08:07:41;15.44;72.77
68977;SHT31;56029;52.568;13.588;2023-04-24T08:10:09;15.47;74.06
68977;SHT31;56029;52.568;13.588;2023-04-24T08:12:36;15.55;72.94
68977;SHT31;56029;52.568;13.588;2023-04-24T08:15:02;15.47;72.95
68977;SHT31;56029;52.568;13.588;2023-04-24T08:17:28;15.47;72.42
68977;SHT31;56029;52.568;13.588;2023-04-24T08:19:53;15.45;71.69
68977;SHT31;56029;52.568;13.588;2023-04-24T08:22:29;15.51;69.86
68977;SHT31;56029;52.568;13.588;2023-04-24T08:24:55;15.51;69.83
68977;SHT31;56029;52.568;13.588;2023-04-24T08:27:23;15.50;70.70
68977;SHT31;56029;52.568;13.588;2023-04-24T08:29:49;15.50;69.15
68977;SHT31;56029;52.568;13.588;2023-04-24T08:32:15;15.57;69.77
68977;SHT31;56029;52.568;13.588;2023-04-24T08:34:41;15.68;70.82
68977;SHT31;56029;52.568;13.588;2023-04-24T08:37:06;15.92;68.16
68977;SHT31;56029;52.568;13.588;2023-04-24T08:39:32;16.02;67.77
68977;SHT31;56029;52.568;13.588;2023-04-24T08:41:59;16.21;67.64
68977;SHT31;56029;52.568;13.588;2023-04-24T08:44:32;16.13;67.13
68977;SHT31;56029;52.568;13.588;2023-04-24T08:46:57;16.30;67.42
68977;SHT31;56029;52.568;13.588;2023-04-24T08:49:24;16.54;67.45
68977;SHT31;56029;52.568;13.588;2023-04-24T08:51:50;16.63;64.34
68977;SHT31;56029;52.568;13.588;2023-04-24T08:54:18;16.75;65.23
68977;SHT31;56029;52.568;13.588;2023-04-24T08:56:59;16.91;65.76
68977;SHT31;56029;52.568;13.588;2023-04-24T08:59:27;17.15;64.78
68977;SHT31;56029;52.568;13.588;2023-04-24T09:01:54;17.20;62.74
68977;SHT31;56029;52.568;13.588;2023-04-24T09:04:21;17.23;62.60
68977;SHT31;56029;52.568;13.588;2023-04-24T09:06:50;17.15;63.52
68977;SHT31;56029;52.568;13.588;2023-04-24T09:09:17;17.07;64.75
68977;SHT31;56029;52.568;13.588;2023-04-24T09:11:44;17.11;63.38
68977;SHT31;56029;52.568;13.588;2023-04-24T09:14:10;16.77;63.86
68977;SHT31;56029;52.568;13.588;2023-04-24T09:16:36;16.89;64.75
68977;SHT31;56029;52.568;13.588;2023-04-24T09:19:02;17.08;66.83
68977;SHT31;56029;52.568;13.588;2023-04-24T09:21:32;17.16;66.69
68977;SHT31;56029;52.568;13.588;2023-04-24T09:24:02;17.32;66.68
68977;SHT31;56029;52.568;13.588;2023-04-24T09:26:34;17.28;64.98
68977;SHT31;56029;52.568;13.588;2023-04-24T09:29:00;17.29;65.96
68977;SHT31;56029;52.568;13.588;2023-04-24T09:31:27;17.33;66.35
68977;SHT31;56029;52.568;13.588;2023-04-24T09:33:59;17.45;67.47
68977;SHT31;56029;52.568;13.588;2023-04-24T09:36:30;17.45;64.40
68977;SHT31;56029;52.568;13.588;2023-04-24T09:39:01;17.42;64.79
68977;SHT31;56029;52.568;13.588;2023-04-24T09:41:28;17.33;65.15
68977;SHT31;56029;52.568;13.588;2023-04-24T09:43:55;17.46;65.11
68977;SHT31;56029;52.568;13.588;2023-04-24T09:46:28;17.39;64.20
68977;SHT31;56029;52.568;13.588;2023-04-24T09:48:55;17.50;64.85
68977;SHT31;56029;52.568;13.588;2023-04-24T09:51:33;17.51;65.43
68977;SHT31;56029;52.568;13.588;2023-04-24T09:54:00;17.50;64.03
68977;SHT31;56029;52.568;13.588;2023-04-24T09:56:26;17.36;64.70
68977;SHT31;56029;52.568;13.588;2023-04-24T09:58:52;17.29;62.75
68977;SHT31;56029;52.568;13.588;2023-04-24T10:01:30;17.07;63.98
68977;SHT31;56029;52.568;13.588;2023-04-24T10:03:56;17.07;65.12
68977;SHT31;56029;52.568;13.588;2023-04-24T10:06:21;17.02;67.04
68977;SHT31;56029;52.568;13.588;2023-04-24T10:08:47;16.98;67.35
68977;SHT31;56029;52.568;13.588;2023-04-24T10:11:13;16.77;68.19
68977;SHT31;56029;52.568;13.588;2023-04-24T10:13:40;16.72;68.23
68977;SHT31;56029;52.568;13.588;2023-04-24T10:16:06;16.70;69.15
68977;SHT31;56029;52.568;13.588;2023-04-24T10:18:32;16.71;70.46
68977;SHT31;56029;52.568;13.588;2023-04-24T10:20:59;16.91;69.86
68977;SHT31;56029;52.568;13.588;2023-04-24T10:23:25;17.12;69.76
68977;SHT31;56029;52.568;13.588;2023-04-24T10:25:52;17.32;68.89
68977;SHT31;56029;52.568;13.588;2023-04-24T10:28:19;17.49;68.12
68977;SHT31;56029;52.568;13.588;2023-04-24T10:30:45;17.57;67.22
68977;SHT31;56029;52.568;13.588;2023-04-24T10:33:11;17.47;66.10
68977;SHT31;56029;52.568;13.588;2023-04-24T10:35:42;17.56;66.51
68977;SHT31;56029;52.568;13.588;2023-04-24T10:38:13;17.49;67.97
68977;SHT31;56029;52.568;13.588;2023-04-24T10:40:39;17.47;67.91
68977;SHT31;56029;52.568;13.588;2023-04-24T10:43:07;17.83;68.44
68977;SHT31;56029;52.568;13.588;2023-04-24T10:45:37;18.12;66.62
68977;SHT31;56029;52.568;13.588;2023-04-24T10:48:05;18.12;64.97
68977;SHT31;56029;52.568;13.588;2023-04-24T10:50:51;18.12;64.66
68977;SHT31;56029;52.568;13.588;2023-04-24T10:53:20;18.39;64.19
68977;SHT31;56029;52.568;13.588;2023-04-24T10:56:05;18.32;65.25
68977;SHT31;56029;52.568;13.588;2023-04-24T10:58:42;18.25;64.38
68977;SHT31;56029;52.568;13.588;2023-04-24T11:01:28;18.14;65.27
68977;SHT31;56029;52.568;13.588;2023-04-24T11:03:56;17.80;64.07
68977;SHT31;56029;52.568;13.588;2023-04-24T11:06:30;17.83;64.08
68977;SHT31;56029;52.568;13.588;2023-04-24T11:09:07;17.73;65.39
68977;SHT31;56029;52.568;13.588;2023-04-24T11:11:34;17.71;64.79
68977;SHT31;56029;52.568;13.588;2023-04-24T11:14:05;17.83;64.65
68977;SHT31;56029;52.568;13.588;2023-04-24T11:16:32;17.94;66.24
68977;SHT31;56029;52.568;13.588;2023-04-24T11:19:10;17.94;65.51
68977;SHT31;56029;52.568;13.588;2023-04-24T11:21:43;17.93;64.65
68977;SHT31;56029;52.568;13.588;2023-04-24T11:27:15;18.45;65.05
68977;SHT31;56029;52.568;13.588;2023-04-24T11:32:30;18.99;65.25
68977;SHT31;56029;52.568;13.588;2023-04-24T11:35:00;18.86;62.73
68977;SHT31;56029;52.568;13.588;2023-04-24T11:37:28;18.73;62.84
68977;SHT31;56029;52.568;13.588;2023-04-24T11:39:56;18.83;63.20
68977;SHT31;56029;52.568;13.588;2023-04-24T11:42:22;18.45;63.17
68977;SHT31;56029;52.568;13.588;2023-04-24T11:44:55;18.31;63.57
68977;SHT31;56029;52.568;13.588;2023-04-24T11:47:30;17.94;63.70
68977;SHT31;56029;52.568;13.588;2023-04-24T11:49:57;17.67;65.58
68977;SHT31;56029;52.568;13.588;2023-04-24T11:52:23;17.36;69.03
68977;SHT31;56029;52.568;13.588;2023-04-24T11:54:49;16.47;73.30
68977;SHT31;56029;52.568;13.588;2023-04-24T11:57:15;15.85;79.44
68977;SHT31;56029;52.568;13.588;2023-04-24T11:59:41;15.58;81.95
68977;SHT31;56029;52.568;13.588;2023-04-24T12:02:08;15.82;81.44
68977;SHT31;56029;52.568;13.588;2023-04-24T12:04:40;16.00;83.27
68977;SHT31;56029;52.568;13.588;2023-04-24T12:07:06;16.27;82.96
68977;SHT31;56029;52.568;13.588;2023-04-24T12:09:47;16.41;80.37
68977;SHT31;56029;52.568;13.588;2023-04-24T12:12:15;16.64;77.50
68977;SHT31;56029;52.568;13.588;2023-04-24T12:14:48;16.77;78.19
68977;SHT31;56029;52.568;13.588;2023-04-24T12:17:15;16.78;77.75
68977;SHT31;56029;52.568;13.588;2023-04-24T12:19:45;16.99;78.44
68977;SHT31;56029;52.568;13.588;2023-04-24T12:22:11;16.99;75.82
68977;SHT31;56029;52.568;13.588;2023-04-24T12:24:55;17.04;75.48
68977;SHT31;56029;52.568;13.588;2023-04-24T12:27:22;17.16;76.19
68977;SHT31;56029;52.568;13.588;2023-04-24T12:29:52;17.37;75.84
68977;SHT31;56029;52.568;13.588;2023-04-24T12:32:18;17.40;74.05
68977;SHT31;56029;52.568;13.588;2023-04-24T12:34:44;17.51;73.13
68977;SHT31;56029;52.568;13.588;2023-04-24T12:37:13;17.40;73.93
68977;SHT31;56029;52.568;13.588;2023-04-24T12:39:46;17.51;73.22
68977;SHT31;56029;52.568;13.588;2023-04-24T12:42:27;17.80;73.66
68977;SHT31;56029;52.568;13.588;2023-04-24T12:44:58;17.93;73.41
68977;SHT31;56029;52.568;13.588;2023-04-24T12:47:25;17.93;70.45
68977;SHT31;56029;52.568;13.588;2023-04-24T12:49:51;17.90;69.28
68977;SHT31;56029;52.568;13.588;2023-04-24T12:52:18;17.78;68.82
68977;SHT31;56029;52.568;13.588;2023-04-24T12:54:45;17.81;67.41
68977;SHT31;56029;52.568;13.588;2023-04-24T12:57:11;17.98;67.13
68977;SHT31;56029;52.568;13.588;2023-04-24T12:59:37;18.14;63.21
68977;SHT31;56029;52.568;13.588;2023-04-24T13:02:04;18.22;62.05
68977;SHT31;56029;52.568;13.588;2023-04-24T13:04:30;18.44;62.81
68977;SHT31;56029;52.568;13.588;2023-04-24T13:06:55;18.39;60.65
68977;SHT31;56029;52.568;13.588;2023-04-24T13:09:21;18.35;60.64
68977;SHT31;56029;52.568;13.588;2023-04-24T13:11:47;18.29;56.76
68977;SHT31;56029;52.568;13.588;2023-04-24T13:14:12;18.34;57.80
68977;SHT31;56029;52.568;13.588;2023-04-24T13:16:38;18.46;55.22
68977;SHT31;56029;52.568;13.588;2023-04-24T13:19:03;18.63;53.25
68977;SHT31;56029;52.568;13.588;2023-04-24T13:21:29;18.79;54.21
68977;SHT31;56029;52.568;13.588;2023-04-24T13:23:58;18.72;53.57
68977;SHT31;56029;52.568;13.588;2023-04-24T13:26:24;18.79;54.19
68977;SHT31;56029;52.568;13.588;2023-04-24T13:28:50;18.60;51.40
68977;SHT31;56029;52.568;13.588;2023-04-24T13:31:15;18.84;54.22
68977;SHT31;56029;52.568;13.588;2023-04-24T13:33:41;18.90;50.97
68977;SHT31;56029;52.568;13.588;2023-04-24T13:36:07;18.97;50.19
68977;SHT31;56029;52.568;13.588;2023-04-24T13:38:32;19.25;49.86
68977;SHT31;56029;52.568;13.588;2023-04-24T13:40:58;19.15;48.36
68977;SHT31;56029;52.568;13.588;2023-04-24T13:43:23;18.92;47.42
68977;SHT31;56029;52.568;13.588;2023-04-24T13:45:49;18.93;49.66
68977;SHT31;56029;52.568;13.588;2023-04-24T13:48:15;18.76;49.67
68977;SHT31;56029;52.568;13.588;2023-04-24T13:50:41;18.55;51.92
68977;SHT31;56029;52.568;13.588;2023-04-24T13:53:07;18.57;50.20
68977;SHT31;56029;52.568;13.588;2023-04-24T13:55:32;18.45;51.25
68977;SHT31;56029;52.568;13.588;2023-04-24T13:57:58;18.59;52.63
68977;SHT31;56029;52.568;13.588;2023-04-24T14:00:24;18.60;49.30
68977;SHT31;56029;52.568;13.588;2023-04-24T14:02:49;18.62;50.15
68977;SHT31;56029;52.568;13.588;2023-04-24T14:05:15;18.56;47.59
68977;SHT31;56029;52.568;13.588;2023-04-24T14:07:41;18.56;47.53
68977;SHT31;56029;52.568;13.588;2023-04-24T14:10:07;18.67;46.24
68977;SHT31;56029;52.568;13.588;2023-04-24T14:12:33;18.70;47.78
68977;SHT31;56029;52.568;13.588;2023-04-24T14:14:59;18.86;47.12
68977;SHT31;56029;52.568;13.588;2023-04-24T14:17:25;18.76;47.95
68977;SHT31;56029;52.568;13.588;2023-04-24T14:19:50;18.73;47.93
68977;SHT31;56029;52.568;13.588;2023-04-24T14:22:17;18.53;45.97
68977;SHT31;56029;52.568;13.588;2023-04-24T14:24:42;18.25;45.79
68977;SHT31;56029;52.568;13.588;2023-04-24T14:27:08;18.15;47.41
68977;SHT31;56029;52.568;13.588;2023-04-24T14:29:34;18.21;48.64
68977;SHT31;56029;52.568;13.588;2023-04-24T14:31:59;18.04;49.18
68977;SHT31;56029;52.568;13.588;2023-04-24T14:34:25;18.25;50.40
68977;SHT31;56029;52.568;13.588;2023-04-24T14:36:52;18.36;50.03
68977;SHT31;56029;52.568;13.588;2023-04-24T14:39:17;18.48;49.62
68977;SHT31;56029;52.568;13.588;2023-04-24T14:41:43;18.42;49.38
68977;SHT31;56029;52.568;13.588;2023-04-24T14:44:09;18.19;48.18
68977;SHT31;56029;52.568;13.588;2023-04-24T14:46:34;18.00;49.60
68977;SHT31;56029;52.568;13.588;2023-04-24T14:49:00;17.91;48.66
68977;SHT31;56029;52.568;13.588;2023-04-24T14:51:25;17.80;49.16
68977;SHT31;56029;52.568;13.588;2023-04-24T14:53:52;18.09;51.62
68977;SHT31;56029;52.568;13.588;2023-04-24T14:56:17;18.31;49.38
68977;SHT31;56029;52.568;13.588;2023-04-24T14:58:43;18.28;49.40
68977;SHT31;56029;52.568;13.588;2023-04-24T15:01:09;18.21;46.61
68977;SHT31;56029;52.568;13.588;2023-04-24T15:03:34;18.15;47.64
68977;SHT31;56029;52.568;13.588;2023-04-24T15:06:00;18.05;47.70
68977;SHT31;56029;52.568;13.588;2023-04-24T15:08:26;17.80;48.64
68977;SHT31;56029;52.568;13.588;2023-04-24T15:10:52;17.74;48.95
68977;SHT31;56029;52.568;13.588;2023-04-24T15:13:17;17.46;51.30
68977;SHT31;56029;52.568;13.588;2023-04-24T15:15:43;17.45;50.09
68977;SHT31;56029;52.568;13.588;2023-04-24T15:18:09;17.54;50.34
68977;SHT31;56029;52.568;13.588;2023-04-24T15:20:37;17.80;50.42
68977;SHT31;56029;52.568;13.588;2023-04-24T15:23:05;17.95;50.73